createdAt,value
2018-09-22T00:01:11.215Z,2.20
2018-09-22T00:03:40.200Z,1.70
2018-09-22T00:06:09.137Z,1.83
2018-09-22T00:08:38.263Z,2.10
2018-09-22T00:11:07.219Z,2.20
2018-09-22T00:13:36.174Z,2.30
2018-09-22T00:16:05.165Z,1.60
2018-09-22T00:18:34.112Z,2.20
2018-09-22T00:21:03.078Z,1.80
2018-09-22T00:23:32.247Z,2.00
2018-09-22T00:26:01.348Z,2.20
2018-09-22T00:28:30.305Z,2.30
2018-09-22T00:30:59.256Z,2.63
2018-09-22T00:33:28.426Z,2.40
2018-09-22T00:35:58.346Z,2.30
2018-09-22T00:38:27.300Z,2.60
2018-09-22T00:40:56.249Z,2.73
2018-09-22T00:43:25.281Z,1.73
2018-09-22T00:45:54.237Z,2.40
2018-09-22T00:48:23.194Z,2.07
2018-09-22T00:50:52.114Z,2.03
2018-09-22T00:53:21.053Z,2.23
2018-09-22T00:55:49.994Z,3.80
2018-09-22T00:58:18.971Z,1.83
2018-09-22T01:00:47.935Z,2.40
2018-09-22T01:03:16.880Z,2.13
2018-09-22T01:05:45.961Z,1.83
2018-09-22T01:08:15.803Z,2.10
2018-09-22T01:10:44.742Z,2.60
2018-09-22T01:13:13.692Z,2.20
2018-09-22T01:15:42.854Z,2.00
2018-09-22T01:18:11.804Z,1.77
2018-09-22T01:20:40.799Z,2.27
2018-09-22T01:23:09.752Z,2.20
2018-09-22T01:25:39.248Z,1.97
2018-09-22T01:28:08.213Z,2.13
2018-09-22T01:30:37.139Z,1.90
2018-09-22T01:33:06.149Z,1.90
2018-09-22T01:35:35.069Z,2.20
2018-09-22T01:38:04.015Z,2.40
2018-09-22T01:40:32.962Z,2.60
2018-09-22T01:43:02.416Z,2.30
2018-09-22T01:45:31.364Z,2.27
2018-09-22T01:48:00.344Z,2.93
2018-09-22T01:50:29.280Z,2.43
2018-09-22T01:52:58.220Z,3.03
2018-09-22T01:55:27.306Z,2.50
2018-09-22T01:57:56.275Z,1.90
2018-09-22T02:00:25.204Z,2.53
2018-09-22T02:02:54.228Z,2.30
2018-09-22T02:05:23.189Z,2.60
2018-09-22T02:07:52.403Z,2.80
2018-09-22T02:10:21.382Z,2.10
2018-09-22T02:12:50.385Z,2.37
2018-09-22T02:15:19.333Z,2.67
2018-09-22T02:17:48.273Z,2.73
2018-09-22T02:20:17.211Z,2.30
2018-09-22T02:22:46.249Z,2.40
2018-09-22T02:25:15.164Z,3.20
2018-09-22T02:27:44.094Z,2.50
2018-09-22T02:30:13.081Z,2.70
2018-09-22T02:32:41.998Z,3.00
2018-09-22T02:35:10.948Z,3.43
2018-09-22T02:37:39.874Z,3.20
2018-09-22T02:40:08.813Z,2.50
2018-09-22T02:42:37.740Z,3.53
2018-09-22T02:45:07.218Z,2.60
2018-09-22T02:47:36.160Z,3.03
2018-09-22T02:50:05.508Z,3.87
2018-09-22T02:52:34.436Z,2.77
2018-09-22T02:55:03.372Z,2.67
2018-09-22T02:57:32.288Z,2.50
2018-09-22T03:00:01.237Z,3.07
2018-09-22T03:02:30.183Z,3.13
2018-09-22T03:04:59.127Z,4.07
2018-09-22T03:07:28.069Z,3.50
2018-09-22T03:09:57.656Z,3.00
2018-09-22T03:12:26.727Z,2.93
2018-09-22T03:14:55.680Z,3.17
2018-09-22T03:17:24.620Z,3.20
2018-09-22T03:19:53.625Z,3.30
2018-09-22T03:22:22.898Z,3.30
2018-09-22T03:24:51.855Z,3.60
2018-09-22T03:27:20.772Z,3.20
2018-09-22T03:29:49.720Z,2.70
2018-09-22T03:32:18.677Z,2.83
2018-09-22T03:34:47.714Z,3.27
2018-09-22T03:37:16.633Z,3.23
2018-09-22T03:39:45.586Z,3.00
2018-09-22T03:42:14.509Z,3.20
2018-09-22T03:44:43.456Z,3.23
2018-09-22T03:47:12.368Z,3.40
2018-09-22T03:49:41.318Z,2.93
2018-09-22T03:52:10.280Z,3.40
2018-09-22T03:54:40.386Z,3.40
2018-09-22T03:57:09.298Z,2.80
2018-09-22T03:59:38.242Z,3.10
2018-09-22T04:02:07.185Z,3.37
2018-09-22T04:04:36.145Z,3.33
2018-09-22T04:07:05.173Z,3.07
2018-09-22T04:09:34.118Z,2.70
2018-09-22T04:12:03.117Z,2.97
2018-09-22T04:14:32.120Z,2.63
2018-09-22T04:17:02.239Z,3.10
2018-09-22T04:19:31.200Z,2.90
2018-09-22T04:22:00.151Z,2.70
2018-09-22T04:24:29.378Z,2.53
2018-09-22T04:26:58.300Z,2.70
2018-09-22T04:29:27.266Z,4.23
2018-09-22T04:31:56.253Z,3.30
2018-09-22T04:34:25.235Z,3.13
2018-09-22T04:36:54.169Z,3.70
2018-09-22T04:39:23.187Z,5.17
2018-09-22T04:41:52.125Z,3.53
2018-09-22T04:44:21.100Z,4.03
2018-09-22T04:46:50.020Z,4.60
2018-09-22T04:49:18.965Z,4.50
2018-09-22T04:51:47.881Z,4.97
2018-09-22T04:54:16.957Z,4.93
2018-09-22T04:56:45.909Z,5.93
2018-09-22T04:59:14.849Z,4.60
2018-09-22T05:01:43.792Z,4.63
2018-09-22T05:04:12.712Z,5.30
2018-09-22T05:06:41.664Z,5.10
2018-09-22T05:09:12.275Z,4.77
2018-09-22T05:11:41.448Z,4.13
2018-09-22T05:14:10.578Z,5.00
2018-09-22T05:16:39.507Z,5.13
2018-09-22T05:19:08.466Z,4.57
2018-09-22T05:21:37.517Z,7.90
2018-09-22T05:24:06.514Z,4.17
2018-09-22T05:26:35.577Z,5.37
2018-09-22T05:29:04.760Z,5.53
2018-09-22T05:31:33.743Z,3.97
2018-09-22T05:34:02.660Z,6.23
2018-09-22T05:36:31.654Z,4.80
2018-09-22T05:39:01.459Z,3.60
